sensor_id;sensor_type;location;lat;lon;timestamp;pressure;altitude;pressure_sealevel;temperature;humidity
60725;BME280;59881;36.722;-4.462;2023-05-24T08:09:11;100652.06;;;31.18;32.96
60725;BME280;59881;36.722;-4.462;2023-05-24T08:11:37;100651.34;;;30.64;34.38
60725;BME280;59881;36.722;-4.462;2023-05-24T08:14:02;100662.16;;;29.68;34.51
60725;BME280;59881;36.722;-4.462;2023-05-24T08:16:28;100662.81;;;30.00;34.35
60725;BME280;59881;36.722;-4.462;2023-05-24T08:18:53;100626.25;;;29.84;34.11
60725;BME280;59881;36.722;-4.462;2023-05-24T08:21:19;100512.53;;;27.35;36.33
60725;BME280;59881;36.722;-4.462;2023-05-24T08:23:45;100580.38;;;26.61;38.09
60725;BME280;59881;36.722;-4.462;2023-05-24T08:26:11;100525.75;;;26.26;39.32
60725;BME280;59881;36.722;-4.462;2023-05-24T08:28:36;100542.81;;;27.05;37.77
60725;BME280;59881;36.722;-4.462;2023-05-24T08:31:02;100677.25;;;28.33;36.96
60725;BME280;59881;36.722;-4.462;2023-05-24T08:33:28;100666.50;;;27.88;37.79
60725;BME280;59881;36.722;-4.462;2023-05-24T08:35:54;100670.25;;;27.80;38.83
60725;BME280;59881;36.722;-4.462;2023-05-24T08:38:19;100610.13;;;28.35;37.23
60725;BME280;59881;36.722;-4.462;2023-05-24T08:40:46;100649.25;;;29.15;36.30
60725;BME280;59881;36.722;-4.462;2023-05-24T08:43:13;100411.00;;;26.55;37.28
60725;BME280;59881;36.722;-4.462;2023-05-24T08:45:39;100674.25;;;26.99;39.29
60725;BME280;59881;36.722;-4.462;2023-05-24T08:48:05;100673.00;;;26.35;40.76
60725;BME280;59881;36.722;-4.462;2023-05-24T08:50:34;100692.03;;;26.00;41.71
60725;BME280;59881;36.722;-4.462;2023-05-24T08:53:00;100402.75;;;24.07;42.31
60725;BME280;59881;36.722;-4.462;2023-05-24T08:55:31;100679.38;;;26.08;42.48
60725;BME280;59881;36.722;-4.462;2023-05-24T08:57:58;100405.97;;;24.72;42.04
60725;BME280;59881;36.722;-4.462;2023-05-24T09:00:24;100659.59;;;28.81;38.21
60725;BME280;59881;36.722;-4.462;2023-05-24T09:02:51;100650.16;;;31.71;33.45
60725;BME280;59881;36.722;-4.462;2023-05-24T09:05:18;100645.94;;;33.10;30.99
60725;BME280;59881;36.722;-4.462;2023-05-24T09:07:47;100639.94;;;34.81;28.52
60725;BME280;59881;36.722;-4.462;2023-05-24T09:10:14;100645.78;;;35.58;27.63
60725;BME280;59881;36.722;-4.462;2023-05-24T09:12:44;100448.94;;;34.15;26.93
60725;BME280;59881;36.722;-4.462;2023-05-24T09:15:10;100637.16;;;35.14;26.83
60725;BME280;59881;36.722;-4.462;2023-05-24T09:17:37;100633.19;;;34.94;26.72
60725;BME280;59881;36.722;-4.462;2023-05-24T09:20:04;100645.31;;;34.66;27.33
60725;BME280;59881;36.722;-4.462;2023-05-24T09:22:33;100536.22;;;34.80;26.92
60725;BME280;59881;36.722;-4.462;2023-05-24T09:25:02;100648.03;;;35.82;26.68
60725;BME280;59881;36.722;-4.462;2023-05-24T09:27:31;100601.91;;;35.48;26.68
60725;BME280;59881;36.722;-4.462;2023-05-24T09:29:57;100665.47;;;35.50;27.06
60725;BME280;59881;36.722;-4.462;2023-05-24T09:32:23;100659.53;;;35.11;27.28
60725;BME280;59881;36.722;-4.462;2023-05-24T09:34:51;100660.38;;;35.84;27.27
60725;BME280;59881;36.722;-4.462;2023-05-24T09:37:23;100629.16;;;35.96;26.18
60725;BME280;59881;36.722;-4.462;2023-05-24T09:39:52;100463.59;;;35.30;26.25
60725;BME280;59881;36.722;-4.462;2023-05-24T09:42:21;100658.78;;;36.76;25.38
60725;BME280;59881;36.722;-4.462;2023-05-24T09:45:03;100655.94;;;37.12;25.72
60725;BME280;59881;36.722;-4.462;2023-05-24T09:47:31;100654.16;;;37.91;25.11
60725;BME280;59881;36.722;-4.462;2023-05-24T09:50:01;100644.44;;;38.38;23.97
60725;BME280;59881;36.722;-4.462;2023-05-24T09:52:27;100453.59;;;37.46;23.56
60725;BME280;59881;36.722;-4.462;2023-05-24T09:54:53;100652.66;;;38.48;23.21
60725;BME280;59881;36.722;-4.462;2023-05-24T09:57:19;100625.13;;;38.48;23.44
60725;BME280;59881;36.722;-4.462;2023-05-24T09:59:50;100634.41;;;38.82;22.94
60725;BME280;59881;36.722;-4.462;2023-05-24T10:02:17;100612.06;;;38.83;22.69
60725;BME280;59881;36.722;-4.462;2023-05-24T10:04:45;100613.50;;;39.86;21.97
60725;BME280;59881;36.722;-4.462;2023-05-24T10:07:11;100665.00;;;38.51;22.92
60725;BME280;59881;36.722;-4.462;2023-05-24T10:09:38;100671.66;;;36.55;25.15
60725;BME280;59881;36.722;-4.462;2023-05-24T10:12:06;100450.47;;;32.60;28.02
60725;BME280;59881;36.722;-4.462;2023-05-24T10:14:33;100686.50;;;31.65;31.04
60725;BME280;59881;36.722;-4.462;2023-05-24T10:17:07;100705.47;;;29.63;34.71
60725;BME280;59881;36.722;-4.462;2023-05-24T10:19:36;100713.84;;;28.49;37.15
60725;BME280;59881;36.722;-4.462;2023-05-24T10:22:06;100631.16;;;27.18;39.04
60725;BME280;59881;36.722;-4.462;2023-05-24T10:24:35;100714.53;;;27.48;40.17
60725;BME280;59881;36.722;-4.462;2023-05-24T10:27:06;100500.16;;;25.62;41.74
60725;BME280;59881;36.722;-4.462;2023-05-24T10:32:15;100715.13;;;26.10;43.70
60725;BME280;59881;36.722;-4.462;2023-05-24T10:34:42;100714.88;;;25.98;43.58
60725;BME280;59881;36.722;-4.462;2023-05-24T10:37:08;100721.78;;;25.66;44.24
60725;BME280;59881;36.722;-4.462;2023-05-24T10:39:34;100627.63;;;24.94;43.05
60725;BME280;59881;36.722;-4.462;2023-05-24T10:42:04;100730.50;;;25.26;43.71
60725;BME280;59881;36.722;-4.462;2023-05-24T10:44:30;100724.25;;;25.26;44.62
60725;BME280;59881;36.722;-4.462;2023-05-24T10:47:14;100717.31;;;25.16;44.63
60725;BME280;59881;36.722;-4.462;2023-05-24T10:49:52;100714.31;;;25.26;44.22
60725;BME280;59881;36.722;-4.462;2023-05-24T10:52:19;100723.66;;;25.30;44.35
60725;BME280;59881;36.722;-4.462;2023-05-24T10:55:07;100719.38;;;25.14;44.79
60725;BME280;59881;36.722;-4.462;2023-05-24T10:57:34;100705.25;;;25.12;42.97
60725;BME280;59881;36.722;-4.462;2023-05-24T11:02:50;100717.47;;;25.36;43.21
60725;BME280;59881;36.722;-4.462;2023-05-24T11:05:17;100588.53;;;24.77;43.16
60725;BME280;59881;36.722;-4.462;2023-05-24T11:07:43;100712.59;;;25.53;43.46
60725;BME280;59881;36.722;-4.462;2023-05-24T11:10:15;100722.91;;;25.43;43.26
60725;BME280;59881;36.722;-4.462;2023-05-24T11:12:42;100380.47;;;22.99;43.93
60725;BME280;59881;36.722;-4.462;2023-05-24T11:15:09;100703.06;;;24.66;44.41
60725;BME280;59881;36.722;-4.462;2023-05-24T11:20:40;100680.28;;;24.04;45.42
60725;BME280;59881;36.722;-4.462;2023-05-24T11:23:07;100466.31;;;22.41;46.00
60725;BME280;59881;36.722;-4.462;2023-05-24T11:25:37;100703.72;;;23.59;46.70
60725;BME280;59881;36.722;-4.462;2023-05-24T11:28:06;100483.31;;;22.19;46.90
60725;BME280;59881;36.722;-4.462;2023-05-24T11:30:32;100727.88;;;24.04;46.18
60725;BME280;59881;36.722;-4.462;2023-05-24T11:32:58;100686.09;;;23.71;46.07
60725;BME280;59881;36.722;-4.462;2023-05-24T11:35:26;100734.31;;;24.24;46.16
60725;BME280;59881;36.722;-4.462;2023-05-24T11:37:57;100715.69;;;23.71;46.57
60725;BME280;59881;36.722;-4.462;2023-05-24T11:40:23;100693.81;;;23.30;47.51
60725;BME280;59881;36.722;-4.462;2023-05-24T11:42:49;100729.03;;;23.05;48.25
60725;BME280;59881;36.722;-4.462;2023-05-24T11:45:16;100751.81;;;22.86;49.16
60725;BME280;59881;36.722;-4.462;2023-05-24T11:47:43;100730.47;;;22.47;50.09
60725;BME280;59881;36.722;-4.462;2023-05-24T11:50:09;100777.59;;;22.18;50.17
60725;BME280;59881;36.722;-4.462;2023-05-24T11:52:39;100521.13;;;20.53;50.80
60725;BME280;59881;36.722;-4.462;2023-05-24T11:55:05;100702.84;;;21.44;51.37
60725;BME280;59881;36.722;-4.462;2023-05-24T11:57:36;100670.13;;;21.01;52.40
60725;BME280;59881;36.722;-4.462;2023-05-24T12:00:05;100767.72;;;20.99;52.79
60725;BME280;59881;36.722;-4.462;2023-05-24T12:02:35;100310.63;;;17.99;54.45
60725;BME280;59881;36.722;-4.462;2023-05-24T12:05:08;100500.84;;;19.27;55.69
60725;BME280;59881;36.722;-4.462;2023-05-24T12:07:36;100751.94;;;20.87;55.54
60725;BME280;59881;36.722;-4.462;2023-05-24T12:10:03;100648.72;;;20.36;55.11
60725;BME280;59881;36.722;-4.462;2023-05-24T12:12:29;100450.63;;;19.22;55.88
60725;BME280;59881;36.722;-4.462;2023-05-24T12:14:55;100637.50;;;20.40;55.23
60725;BME280;59881;36.722;-4.462;2023-05-24T12:17:21;100513.59;;;19.58;55.55
60725;BME280;59881;36.722;-4.462;2023-05-24T12:19:48;100659.75;;;20.41;55.20
60725;BME280;59881;36.722;-4.462;2023-05-24T12:22:14;100730.84;;;21.01;55.14
60725;BME280;59881;36.722;-4.462;2023-05-24T12:24:39;100738.22;;;21.23;55.53
60725;BME280;59881;36.722;-4.462;2023-05-24T12:27:06;100748.41;;;21.20;56.51
60725;BME280;59881;36.722;-4.462;2023-05-24T12:29:37;100481.19;;;19.44;56.46
60725;BME280;59881;36.722;-4.462;2023-05-24T12:32:05;100734.22;;;20.95;58.08
60725;BME280;59881;36.722;-4.462;2023-05-24T12:34:35;100726.25;;;21.34;58.43
60725;BME280;59881;36.722;-4.462;2023-05-24T12:37:01;100643.34;;;20.93;57.82
60725;BME280;59881;36.722;-4.462;2023-05-24T12:39:28;100611.94;;;20.38;58.35
60725;BME280;59881;36.722;-4.462;2023-05-24T12:41:56;100747.59;;;21.11;58.50
60725;BME280;59881;36.722;-4.462;2023-05-24T12:44:27;100747.94;;;21.00;59.27
60725;BME280;59881;36.722;-4.462;2023-05-24T12:46:54;100720.50;;;20.81;58.73
60725;BME280;59881;36.722;-4.462;2023-05-24T12:49:24;100713.63;;;20.95;59.32
60725;BME280;59881;36.722;-4.462;2023-05-24T12:51:52;100738.41;;;21.05;59.62
60725;BME280;59881;36.722;-4.462;2023-05-24T12:54:20;100741.25;;;20.87;59.84
60725;BME280;59881;36.722;-4.462;2023-05-24T12:56:46;100752.66;;;20.81;61.25
60725;BME280;59881;36.722;-4.462;2023-05-24T12:59:12;100736.91;;;20.86;59.40
60725;BME280;59881;36.722;-4.462;2023-05-24T13:01:38;100710.09;;;20.54;58.02
60725;BME280;59881;36.722;-4.462;2023-05-24T13:04:03;100733.91;;;20.81;60.03
60725;BME280;59881;36.722;-4.462;2023-05-24T13:06:29;100750.94;;;20.80;59.43
60725;BME280;59881;36.722;-4.462;2023-05-24T13:08:55;100736.47;;;20.32;58.29
60725;BME280;59881;36.722;-4.462;2023-05-24T13:11:20;100735.69;;;20.56;59.24
60725;BME280;59881;36.722;-4.462;2023-05-24T13:13:47;100729.53;;;20.64;60.01
60725;BME280;59881;36.722;-4.462;2023-05-24T13:16:12;100744.78;;;20.80;60.61
60725;BME280;59881;36.722;-4.462;2023-05-24T13:18:38;100748.09;;;20.65;61.92
60725;BME280;59881;36.722;-4.462;2023-05-24T13:21:04;100736.22;;;20.76;61.85
60725;BME280;59881;36.722;-4.462;2023-05-24T13:23:33;100733.22;;;20.87;61.39
60725;BME280;59881;36.722;-4.462;2023-05-24T13:26:00;100745.94;;;21.02;61.73
60725;BME280;59881;36.722;-4.462;2023-05-24T13:28:29;100809.53;;;21.00;61.05
60725;BME280;59881;36.722;-4.462;2023-05-24T13:30:54;100741.09;;;20.97;60.41
60725;BME280;59881;36.722;-4.462;2023-05-24T13:33:20;100684.72;;;20.66;60.98
60725;BME280;59881;36.722;-4.462;2023-05-24T13:35:45;100740.41;;;20.95;61.35
60725;BME280;59881;36.722;-4.462;2023-05-24T13:38:11;100731.72;;;20.77;61.09
60725;BME280;59881;36.722;-4.462;2023-05-24T13:40:38;100186.72;;;17.34;60.48
60725;BME280;59881;36.722;-4.462;2023-05-24T13:43:04;100678.66;;;20.47;60.75
60725;BME280;59881;36.722;-4.462;2023-05-24T13:45:29;100642.53;;;20.35;60.00
60725;BME280;59881;36.722;-4.462;2023-05-24T13:47:57;100726.22;;;20.70;60.22
60725;BME280;59881;36.722;-4.462;2023-05-24T13:50:29;100460.53;;;18.88;60.11
60725;BME280;59881;36.722;-4.462;2023-05-24T13:52:57;100687.97;;;20.19;59.85
60725;BME280;59881;36.722;-4.462;2023-05-24T13:55:22;100656.22;;;20.08;60.82
60725;BME280;59881;36.722;-4.462;2023-05-24T13:57:48;100722.31;;;20.56;61.60
60725;BME280;59881;36.722;-4.462;2023-05-24T14:00:14;100537.13;;;19.54;61.56
60725;BME280;59881;36.722;-4.462;2023-05-24T14:02:41;100712.81;;;20.62;61.50
60725;BME280;59881;36.722;-4.462;2023-05-24T14:05:07;100694.41;;;20.59;61.92
60725;BME280;59881;36.722;-4.462;2023-05-24T14:07:33;100687.50;;;20.56;61.61
60725;BME280;59881;36.722;-4.462;2023-05-24T14:09:59;100483.03;;;19.44;60.92
60725;BME280;59881;36.722;-4.462;2023-05-24T14:12:24;100705.75;;;20.94;60.32
60725;BME280;59881;36.722;-4.462;2023-05-24T14:14:50;100690.03;;;20.82;60.44
60725;BME280;59881;36.722;-4.462;2023-05-24T14:17:16;100653.75;;;20.72;60.15
60725;BME280;59881;36.722;-4.462;2023-05-24T14:19:41;100706.59;;;20.94;60.68
60725;BME280;59881;36.722;-4.462;2023-05-24T14:22:06;100494.91;;;19.58;61.23
60725;BME280;59881;36.722;-4.462;2023-05-24T14:24:32;100705.91;;;20.92;61.50
60725;BME280;59881;36.722;-4.462;2023-05-24T14:26:58;100548.91;;;19.94;61.17
60725;BME280;59881;36.722;-4.462;2023-05-24T14:29:23;100709.81;;;20.81;61.00
60725;BME280;59881;36.722;-4.462;2023-05-24T14:31:49;100684.03;;;20.64;60.96
60725;BME280;59881;36.722;-4.462;2023-05-24T14:34:14;100672.63;;;20.45;61.38
60725;BME280;59881;36.722;-4.462;2023-05-24T14:36:40;100681.16;;;20.49;62.12
60725;BME280;59881;36.722;-4.462;2023-05-24T14:39:06;100678.81;;;20.54;62.64
60725;BME280;59881;36.722;-4.462;2023-05-24T14:41:33;100663.13;;;20.35;61.91
60725;BME280;59881;36.722;-4.462;2023-05-24T14:43:59;100698.25;;;20.48;63.09
60725;BME280;59881;36.722;-4.462;2023-05-24T14:46:25;100698.53;;;20.45;64.28
60725;BME280;59881;36.722;-4.462;2023-05-24T14:48:50;100702.41;;;20.42;63.88
60725;BME280;59881;36.722;-4.462;2023-05-24T14:51:16;100661.38;;;20.01;63.84
60725;BME280;59881;36.722;-4.462;2023-05-24T14:53:42;100693.66;;;20.16;64.93
60725;BME280;59881;36.722;-4.462;2023-05-24T14:56:07;100690.97;;;20.08;64.84
60725;BME280;59881;36.722;-4.462;2023-05-24T14:58:34;100582.38;;;19.39;65.61
60725;BME280;59881;36.722;-4.462;2023-05-24T15:01:00;100716.91;;;20.15;66.03
60725;BME280;59881;36.722;-4.462;2023-05-24T15:03:26;100675.44;;;20.03;66.89
60725;BME280;59881;36.722;-4.462;2023-05-24T15:05:51;100692.50;;;20.18;65.62
60725;BME280;59881;36.722;-4.462;2023-05-24T15:08:17;100723.47;;;20.37;65.51
60725;BME280;59881;36.722;-4.462;2023-05-24T15:10:42;100658.72;;;20.25;64.84
60725;BME280;59881;36.722;-4.462;2023-05-24T15:13:11;100454.22;;;18.89;64.21
60725;BME280;59881;36.722;-4.462;2023-05-24T15:15:37;100431.00;;;18.47;64.04
60725;BME280;59881;36.722;-4.462;2023-05-24T15:18:02;100693.88;;;20.31;64.24
60725;BME280;59881;36.722;-4.462;2023-05-24T15:20:28;100666.75;;;20.09;63.93
60725;BME280;59881;36.722;-4.462;2023-05-24T15:22:54;100406.13;;;18.46;63.64
60725;BME280;59881;36.722;-4.462;2023-05-24T15:25:20;100663.56;;;20.05;64.69
60725;BME280;59881;36.722;-4.462;2023-05-24T15:27:46;100547.66;;;19.39;65.38
60725;BME280;59881;36.722;-4.462;2023-05-24T15:30:12;100685.00;;;20.22;65.32
60725;BME280;59881;36.722;-4.462;2023-05-24T15:32:38;100628.25;;;19.85;65.38
60725;BME280;59881;36.722;-4.462;2023-05-24T15:35:03;100678.94;;;20.12;66.04
60725;BME280;59881;36.722;-4.462;2023-05-24T15:37:30;100410.78;;;18.44;66.58
60725;BME280;59881;36.722;-4.462;2023-05-24T15:39:56;100678.09;;;19.95;67.03
60725;BME280;59881;36.722;-4.462;2023-05-24T15:42:21;100655.47;;;19.73;67.83
60725;BME280;59881;36.722;-4.462;2023-05-24T15:44:49;100432.38;;;18.25;69.13
60725;BME280;59881;36.722;-4.462;2023-05-24T15:47:14;100685.72;;;19.73;69.68
60725;BME280;59881;36.722;-4.462;2023-05-24T15:49:41;100572.06;;;19.10;70.05
60725;BME280;59881;36.722;-4.462;2023-05-24T15:52:07;100692.97;;;19.97;69.28
60725;BME280;59881;36.722;-4.462;2023-05-24T15:54:34;100678.75;;;19.97;68.22
60725;BME280;59881;36.722;-4.462;2023-05-24T15:56:59;100417.09;;;18.35;68.47
60725;BME280;59881;36.722;-4.462;2023-05-24T15:59:26;100629.75;;;19.72;69.43
60725;BME280;59881;36.722;-4.462;2023-05-24T16:01:52;100646.16;;;19.85;69.36
60725;BME280;59881;36.722;-4.462;2023-05-24T16:04:18;100607.78;;;19.52;69.62
60725;BME280;59881;36.722;-4.462;2023-05-24T16:06:43;100679.41;;;19.91;69.86
60725;BME280;59881;36.722;-4.462;2023-05-24T16:09:09;100634.72;;;19.67;69.69
60725;BME280;59881;36.722;-4.462;2023-05-24T16:11:34;100677.41;;;20.01;69.32
60725;BME280;59881;36.722;-4.462;2023-05-24T16:14:00;100361.16;;;18.09;68.19
60725;BME280;59881;36.722;-4.462;2023-05-24T16:16:27;100619.47;;;19.59;68.06
60725;BME280;59881;36.722;-4.462;2023-05-24T16:18:53;100523.16;;;19.10;68.35
60725;BME280;59881;36.722;-4.462;2023-05-24T16:21:19;100661.03;;;19.96;68.10
60725;BME280;59881;36.722;-4.462;2023-05-24T16:23:45;100375.19;;;18.19;67.56
60725;BME280;59881;36.722;-4.462;2023-05-24T16:26:11;100696.63;;;19.96;66.87
60725;BME280;59881;36.722;-4.462;2023-05-24T16:28:36;100361.19;;;17.91;66.61
60725;BME280;59881;36.722;-4.462;2023-05-24T16:31:02;100579.66;;;19.31;66.08
60725;BME280;59881;36.722;-4.462;2023-05-24T16:33:28;100661.69;;;19.90;66.46
60725;BME280;59881;36.722;-4.462;2023-05-24T16:35:53;100707.84;;;20.00;66.85
60725;BME280;59881;36.722;-4.462;2023-05-24T16:38:23;100596.28;;;19.59;66.76
60725;BME280;59881;36.722;-4.462;2023-05-24T16:40:52;100664.69;;;19.87;66.40
60725;BME280;59881;36.722;-4.462;2023-05-24T16:43:18;100676.19;;;19.79;66.94
60725;BME280;59881;36.722;-4.462;2023-05-24T16:45:44;100760.75;;;19.80;67.53
60725;BME280;59881;36.722;-4.462;2023-05-24T16:48:10;100561.06;;;19.13;67.70
60725;BME280;59881;36.722;-4.462;2023-05-24T16:50:36;100556.81;;;18.94;67.59
60725;BME280;59881;36.722;-4.462;2023-05-24T16:53:01;100671.50;;;19.38;67.98
60725;BME280;59881;36.722;-4.462;2023-05-24T16:55:27;100275.34;;;17.01;68.42
60725;BME280;59881;36.722;-4.462;2023-05-24T16:57:53;100389.69;;;17.90;69.00
60725;BME280;59881;36.722;-4.462;2023-05-24T17:00:19;100407.09;;;18.03;68.58
60725;BME280;59881;36.722;-4.462;2023-05-24T17:02:45;100605.66;;;19.21;68.83
60725;BME280;59881;36.722;-4.462;2023-05-24T17:05:10;100613.66;;;19.21;69.23
60725;BME280;59881;36.722;-4.462;2023-05-24T17:07:36;100680.59;;;19.54;68.69
60725;BME280;59881;36.722;-4.462;2023-05-24T17:10:02;100426.91;;;18.00;69.06
60725;BME280;59881;36.722;-4.462;2023-05-24T17:12:27;100671.56;;;19.47;68.14
60725;BME280;59881;36.722;-4.462;2023-05-24T17:14:54;100708.47;;;19.51;69.02
60725;BME280;59881;36.722;-4.462;2023-05-24T17:17:20;100331.41;;;17.43;68.79
60725;BME280;59881;36.722;-4.462;2023-05-24T17:19:45;100592.38;;;19.03;69.04
60725;BME280;59881;36.722;-4.462;2023-05-24T17:22:11;100492.44;;;18.37;70.18
60725;BME280;59881;36.722;-4.462;2023-05-24T17:24:37;100251.41;;;16.83;70.50
60725;BME280;59881;36.722;-4.462;2023-05-24T17:27:02;100672.88;;;19.42;70.65
60725;BME280;59881;36.722;-4.462;2023-05-24T17:29:32;100306.13;;;17.03;70.86
60725;BME280;59881;36.722;-4.462;2023-05-24T17:31:58;100591.88;;;18.73;71.81
60725;BME280;59881;36.722;-4.462;2023-05-24T17:34:24;100683.16;;;19.29;72.25
60725;BME280;59881;36.722;-4.462;2023-05-24T17:36:50;100460.00;;;17.97;71.46
60725;BME280;59881;36.722;-4.462;2023-05-24T17:39:16;100687.47;;;19.30;71.24
60725;BME280;59881;36.722;-4.462;2023-05-24T17:41:44;100585.31;;;18.68;70.80
60725;BME280;59881;36.722;-4.462;2023-05-24T17:44:09;100679.13;;;19.25;71.16
60725;BME280;59881;36.722;-4.462;2023-05-24T17:46:35;100665.91;;;19.15;71.20
60725;BME280;59881;36.722;-4.462;2023-05-24T17:49:01;100698.63;;;19.17;71.31
60725;BME280;59881;36.722;-4.462;2023-05-24T17:51:26;100711.38;;;19.06;71.28
60725;BME280;59881;36.722;-4.462;2023-05-24T17:53:52;100454.88;;;17.42;71.65
60725;BME280;59881;36.722;-4.462;2023-05-24T17:56:17;100699.13;;;18.95;72.38
60725;BME280;59881;36.722;-4.462;2023-05-24T17:58:43;100369.44;;;16.82;71.89
60725;BME280;59881;36.722;-4.462;2023-05-24T18:01:10;100193.22;;;15.70;72.15
60725;BME280;59881;36.722;-4.462;2023-05-24T18:03:37;100692.06;;;18.86;72.39
60725;BME280;59881;36.722;-4.462;2023-05-24T18:06:04;100694.78;;;18.76;72.18
60725;BME280;59881;36.722;-4.462;2023-05-24T18:08:31;100723.47;;;18.74;72.67
60725;BME280;59881;36.722;-4.462;2023-05-24T18:10:56;100693.56;;;18.70;72.62
60725;BME280;59881;36.722;-4.462;2023-05-24T18:13:22;100462.09;;;17.14;72.61
60725;BME280;59881;36.722;-4.462;2023-05-24T18:15:49;100658.84;;;18.26;73.34
60725;BME280;59881;36.722;-4.462;2023-05-24T18:18:15;100486.75;;;16.88;73.47
60725;BME280;59881;36.722;-4.462;2023-05-24T18:20:41;100487.38;;;17.00;74.56
60725;BME280;59881;36.722;-4.462;2023-05-24T18:23:07;100263.41;;;15.58;74.92
60725;BME280;59881;36.722;-4.462;2023-05-24T18:25:33;100473.47;;;16.41;74.95
60725;BME280;59881;36.722;-4.462;2023-05-24T18:27:59;100130.56;;;14.65;75.05
60725;BME280;59881;36.722;-4.462;2023-05-24T18:30:24;100815.72;;;18.31;75.75
60725;BME280;59881;36.722;-4.462;2023-05-24T18:32:50;100364.13;;;15.69;75.53
60725;BME280;59881;36.722;-4.462;2023-05-24T18:35:17;100306.75;;;15.49;75.69
60725;BME280;59881;36.722;-4.462;2023-05-24T18:37:45;100598.59;;;17.34;76.22
60725;BME280;59881;36.722;-4.462;2023-05-24T18:40:13;100638.44;;;17.53;76.67
60725;BME280;59881;36.722;-4.462;2023-05-24T18:42:40;100744.84;;;18.10;76.68
60725;BME280;59881;36.722;-4.462;2023-05-24T18:45:06;100823.63;;;18.05;77.00
60725;BME280;59881;36.722;-4.462;2023-05-24T18:47:32;100426.03;;;15.99;77.16
60725;BME280;59881;36.722;-4.462;2023-05-24T18:49:58;100484.81;;;16.33;77.51
60725;BME280;59881;36.722;-4.462;2023-05-24T18:52:25;100797.16;;;17.93;78.18
60725;BME280;59881;36.722;-4.462;2023-05-24T18:54:52;100171.13;;;14.27;77.76
60725;BME280;59881;36.722;-4.462;2023-05-24T18:57:18;100666.19;;;17.13;78.54
60725;BME280;59881;36.722;-4.462;2023-05-24T18:59:44;100771.78;;;17.79;78.76
60725;BME280;59881;36.722;-4.462;2023-05-24T19:02:09;100294.25;;;14.93;78.73
60725;BME280;59881;36.722;-4.462;2023-05-24T19:04:35;100758.19;;;17.73;79.53
60725;BME280;59881;36.722;-4.462;2023-05-24T19:07:00;100766.34;;;17.71;79.72
60725;BME280;59881;36.722;-4.462;2023-05-24T19:09:26;100527.25;;;16.16;80.01
60725;BME280;59881;36.722;-4.462;2023-05-24T19:11:53;100518.19;;;16.08;80.35
60725;BME280;59881;36.722;-4.462;2023-05-24T19:14:22;100464.22;;;15.69;80.60
60725;BME280;59881;36.722;-4.462;2023-05-24T19:16:47;100586.44;;;15.88;80.40
60725;BME280;59881;36.722;-4.462;2023-05-24T19:19:13;100733.88;;;17.21;81.04
60725;BME280;59881;36.722;-4.462;2023-05-24T19:21:39;100610.19;;;16.09;81.17
60725;BME280;59881;36.722;-4.462;2023-05-24T19:24:05;100440.03;;;15.43;81.36
60725;BME280;59881;36.722;-4.462;2023-05-24T19:26:31;100713.00;;;17.06;81.71
60725;BME280;59881;36.722;-4.462;2023-05-24T19:28:56;100780.63;;;17.43;81.99
60725;BME280;59881;36.722;-4.462;2023-05-24T19:31:24;100657.06;;;16.59;82.13
60725;BME280;59881;36.722;-4.462;2023-05-24T19:33:51;100783.72;;;17.38;82.62
60725;BME280;59881;36.722;-4.462;2023-05-24T19:36:18;100675.25;;;16.64;82.81
60725;BME280;59881;36.722;-4.462;2023-05-24T19:38:47;100579.41;;;15.68;83.04
60725;BME280;59881;36.722;-4.462;2023-05-24T19:41:12;100875.78;;;17.31;83.75
60725;BME280;59881;36.722;-4.462;2023-05-24T19:43:38;100342.88;;;14.53;83.98
60725;BME280;59881;36.722;-4.462;2023-05-24T19:46:03;100581.53;;;15.93;84.28
60725;BME280;59881;36.722;-4.462;2023-05-24T19:48:32;100801.66;;;17.26;84.71
60725;BME280;59881;36.722;-4.462;2023-05-24T19:50:58;100867.50;;;17.24;84.85
60725;BME280;59881;36.722;-4.462;2023-05-24T19:53:23;100691.75;;;16.58;85.16
60725;BME280;59881;36.722;-4.462;2023-05-24T19:55:51;100809.94;;;17.23;85.51
60725;BME280;59881;36.722;-4.462;2023-05-24T19:58:16;100780.09;;;17.00;85.65
60725;BME280;59881;36.722;-4.462;2023-05-24T20:00:42;100501.50;;;15.28;85.73
60725;BME280;59881;36.722;-4.462;2023-05-24T20:03:07;100776.63;;;16.90;86.30
60725;BME280;59881;36.722;-4.462;2023-05-24T20:05:33;100822.69;;;17.10;86.72
60725;BME280;59881;36.722;-4.462;2023-05-24T20:07:58;100814.72;;;17.10;87.09
60725;BME280;59881;36.722;-4.462;2023-05-24T20:10:23;100806.03;;;16.88;87.39
60725;BME280;59881;36.722;-4.462;2023-05-24T20:12:51;100814.03;;;16.98;87.77
60725;BME280;59881;36.722;-4.462;2023-05-24T20:15:17;100585.97;;;15.64;87.50
60725;BME280;59881;36.722;-4.462;2023-05-24T20:17:42;100708.69;;;16.47;87.42
60725;BME280;59881;36.722;-4.462;2023-05-24T20:20:12;100768.50;;;16.82;87.21
60725;BME280;59881;36.722;-4.462;2023-05-24T20:22:38;100477.88;;;15.06;86.84
60725;BME280;59881;36.722;-4.462;2023-05-24T20:25:03;100797.06;;;17.09;87.02
60725;BME280;59881;36.722;-4.462;2023-05-24T20:27:29;100537.72;;;15.49;86.48
60725;BME280;59881;36.722;-4.462;2023-05-24T20:29:55;100582.22;;;15.76;86.30
60725;BME280;59881;36.722;-4.462;2023-05-24T20:32:20;100785.16;;;17.03;86.27
60725;BME280;59881;36.722;-4.462;2023-05-24T20:34:46;100693.47;;;16.39;86.16
60725;BME280;59881;36.722;-4.462;2023-05-24T20:37:11;100848.63;;;17.27;86.24
60725;BME280;59881;36.722;-4.462;2023-05-24T20:39:37;100871.97;;;16.85;86.70
60725;BME280;59881;36.722;-4.462;2023-05-24T20:42:02;100591.22;;;15.35;86.41
60725;BME280;59881;36.722;-4.462;2023-05-24T20:44:28;100276.13;;;13.47;86.84
60725;BME280;59881;36.722;-4.462;2023-05-24T20:46:53;100867.81;;;17.11;87.63
60725;BME280;59881;36.722;-4.462;2023-05-24T20:49:19;100867.97;;;17.10;87.83
60725;BME280;59881;36.722;-4.462;2023-05-24T20:51:44;100924.81;;;17.09;87.86
60725;BME280;59881;36.722;-4.462;2023-05-24T20:54:10;100825.88;;;16.74;88.06